Terminal Aerodrome Forecast
Issued by NWS

Home | Current Version | Previous Version | Text Only | Print | Product List | Glossary On
Versions: 1 2 3 4 5 6 7 8 9 10 11 12 13 14 15
000
FTUS44 KTSA 281100
TAFBVO
TAF
KBVO 281120Z 2812/2912 14004KT P6SM -SHRA BKN100
     FM281500 16008KT P6SM SCT120
     FM282000 13007KT P6SM SCT250
     FM290600 17012KT P6SM SCT250=

USA.gov is the U.S. government's official web portal to all federal, state and local government web resources and services.